Time;durP1;ratioP1;P1;durP2;ratioP2;P2;SDS_P1;SDS_P2;PMS_P1;PMS_P2;Temp;Humidity;BMP_temperature;BMP_pressure;BME280_temperature;BME280_humidity;BME280_pressure;Samples;Min_cycle;Max_cycle;Signal;HPM_P1;HPM_P2
2022/05/03 00:01:51;;;;;;;;;;;;;;;11.02;86.02;94957.06;4974324;28;969;-48
2022/05/03 00:04:20;;;;;;;;;;;;;;;10.99;85.74;94953.91;4973978;28;1032;-49
2022/05/03 00:06:46;;;;;;;;;;;;;;;11.01;85.25;94952.72;4974014;28;1033;-49
2022/05/03 00:09:16;;;;;;;;;;;;;;;11.10;86.03;94957.06;4973820;28;1033;-49
2022/05/03 00:11:50;;;;;;;;;;;;;;;11.05;85.23;94953.22;4974269;28;1077;-49
2022/05/03 00:14:20;;;;;;;;;;;;;;;11.02;85.51;94957.06;4973685;28;1968;-49
2022/05/03 00:16:48;;;;;;;;;;;;;;;10.97;85.49;94953.22;4977737;28;1053;-49
2022/05/03 00:19:14;;;;;;;;;;;;;;;11.00;86.60;94950.19;4977146;28;1904;-48
2022/05/03 00:21:41;;;;;;;;;;;;;;;11.00;86.16;94944.84;4977500;28;1041;-49
2022/05/03 00:24:07;;;;;;;;;;;;;;;11.08;84.79;94945.69;4977472;28;1050;-49
2022/05/03 00:26:34;;;;;;;;;;;;;;;11.09;85.11;94952.69;4977261;28;1221;-49
2022/05/03 00:29:00;;;;;;;;;;;;;;;11.22;84.56;94940.66;4977245;28;1101;-48
2022/05/03 00:31:27;;;;;;;;;;;;;;;11.21;84.76;94938.97;4977251;28;1064;-49
2022/05/03 00:33:54;;;;;;;;;;;;;;;11.14;84.48;94949.53;4975787;28;1906;-49
2022/05/03 00:36:21;;;;;;;;;;;;;;;11.10;85.05;94941.00;4977116;28;1033;-49
2022/05/03 00:38:47;;;;;;;;;;;;;;;11.15;85.34;94943.16;4977291;28;1031;-49
2022/05/03 00:41:32;;;;;;;;;;;;;;;11.24;84.75;94939.47;4977486;28;973;-49
2022/05/03 00:44:55;;;;;;;;;;;;;;;11.34;84.85;94936.59;4976912;28;934;-48
2022/05/03 00:46:51;;;;;;;;;;;;;;;11.41;84.30;94931.41;4977078;28;1566;-48
2022/05/03 00:49:31;;;;;;;;;;;;;;;11.40;84.55;94935.94;4976490;28;1041;-49
2022/05/03 00:52:03;;;;;;;;;;;;;;;11.36;85.19;94939.94;4977199;28;1006;-49
2022/05/03 00:54:34;;;;;;;;;;;;;;;11.21;85.37;94934.47;4976842;28;1915;-48
2022/05/03 00:57:15;;;;;;;;;;;;;;;11.14;85.68;94939.66;4977120;28;1033;-48
2022/05/03 01:00:00;;;;;;;;;;;;;;;11.16;85.92;94946.69;4976815;28;1214;-48
2022/05/03 01:02:37;;;;;;;;;;;;;;;11.22;85.79;94940.66;4976850;28;993;-49
2022/05/03 01:05:09;;;;;;;;;;;;;;;11.29;85.59;94931.75;4976581;28;1009;-48
2022/05/03 01:07:36;;;;;;;;;;;;;;;11.27;85.10;94928.44;4976211;28;1971;-48
2022/05/03 01:10:05;;;;;;;;;;;;;;;11.30;85.13;94925.38;4976764;28;1069;-48
2022/05/03 01:12:49;;;;;;;;;;;;;;;11.32;85.71;94927.91;4976478;28;1096;-48
2022/05/03 01:15:18;;;;;;;;;;;;;;;11.38;84.61;94931.72;4976558;28;2004;-48
2022/05/03 01:17:45;;;;;;;;;;;;;;;11.33;84.96;94934.94;4976288;28;1072;-48
2022/05/03 01:20:15;;;;;;;;;;;;;;;11.19;85.48;94931.09;4976211;28;1121;-48
2022/05/03 01:22:47;;;;;;;;;;;;;;;11.08;85.54;94937.66;4976952;28;1050;-48
2022/05/03 01:25:33;;;;;;;;;;;;;;;11.22;84.70;94925.41;4976139;28;1159;-48
2022/05/03 01:28:11;;;;;;;;;;;;;;;11.28;84.56;94926.56;4976086;28;1237;-48
2022/05/03 01:30:41;;;;;;;;;;;;;;;11.28;84.90;94924.72;4976077;28;947;-48
2022/05/03 01:33:08;;;;;;;;;;;;;;;11.22;85.79;94935.28;4975956;28;1910;-48
2022/05/03 01:35:39;;;;;;;;;;;;;;;11.08;86.36;94932.31;4976450;28;1010;-48
2022/05/03 01:38:05;;;;;;;;;;;;;;;11.02;86.00;94926.78;4976369;28;1046;-48
2022/05/03 01:40:31;;;;;;;;;;;;;;;11.04;86.57;94922.09;4976055;28;1004;-48
2022/05/03 01:43:11;;;;;;;;;;;;;;;11.19;86.43;94925.75;4975993;28;1049;-48
2022/05/03 01:45:58;;;;;;;;;;;;;;;11.24;85.61;94919.91;4976254;28;959;-48
2022/05/03 01:50:18;;;;;;;;;;;;;;;11.30;85.03;94916.53;4975471;28;1100;-48
2022/05/03 01:51:30;;;;;;;;;;;;;;;11.36;84.53;94915.00;4975838;28;963;-48
2022/05/03 01:54:07;;;;;;;;;;;;;;;11.37;84.27;94925.56;4975967;28;1977;-48
2022/05/03 01:56:52;;;;;;;;;;;;;;;11.36;84.60;94925.72;4976046;28;1037;-48
2022/05/03 01:59:27;;;;;;;;;;;;;;;11.35;84.97;94924.91;4975758;28;949;-48
2022/05/03 02:01:59;;;;;;;;;;;;;;;11.23;84.83;94927.09;4975904;28;966;-48
2022/05/03 02:04:31;;;;;;;;;;;;;;;11.05;84.99;94934.47;4975529;28;962;-48
2022/05/03 02:07:00;;;;;;;;;;;;;;;10.89;85.98;94935.34;4975598;28;1061;-48
2022/05/03 02:09:30;;;;;;;;;;;;;;;10.93;85.98;94928.66;4975511;28;1034;-48
2022/05/03 02:12:08;;;;;;;;;;;;;;;10.84;86.65;94927.81;4975633;28;1016;-48
2022/05/03 02:14:46;;;;;;;;;;;;;;;10.91;86.24;94934.16;4975116;28;1981;-48
2022/05/03 02:17:18;;;;;;;;;;;;;;;11.03;85.48;94928.47;4975752;28;1037;-48
2022/05/03 02:19:50;;;;;;;;;;;;;;;11.12;84.50;94924.78;4975164;28;1892;-48
2022/05/03 02:22:33;;;;;;;;;;;;;;;11.13;84.87;94921.09;4975897;28;954;-48
2022/05/03 02:25:05;;;;;;;;;;;;;;;11.23;83.47;94915.53;4975048;28;1042;-48
2022/05/03 02:27:31;;;;;;;;;;;;;;;11.23;84.13;94926.25;4975044;28;1285;-48
2022/05/03 02:29:58;;;;;;;;;;;;;;;11.14;83.40;94920.91;4975095;28;1037;-48
2022/05/03 02:32:30;;;;;;;;;;;;;;;11.13;83.55;94929.09;4975189;28;981;-48
2022/05/03 02:35:03;;;;;;;;;;;;;;;11.08;84.44;94924.28;4974902;28;1980;-48
2022/05/03 02:37:46;;;;;;;;;;;;;;;11.00;83.85;94932.28;4974328;28;996;-48
2022/05/03 02:40:15;;;;;;;;;;;;;;;10.96;83.91;94928.28;4975107;28;1016;-48
2022/05/03 02:42:41;;;;;;;;;;;;;;;10.94;84.35;94923.09;4975076;28;949;-48
2022/05/03 02:45:08;;;;;;;;;;;;;;;10.89;84.22;94925.47;4975108;28;1053;-48
2022/05/03 02:47:39;;;;;;;;;;;;;;;11.02;82.76;94924.97;4974618;28;986;-48
2022/05/03 02:50:08;;;;;;;;;;;;;;;11.05;81.82;94924.59;4974687;28;1037;-48
2022/05/03 02:52:52;;;;;;;;;;;;;;;11.04;82.02;94927.44;4974821;28;1033;-48
2022/05/03 02:55:21;;;;;;;;;;;;;;;11.07;81.67;94933.31;4974454;28;1903;-48
2022/05/03 02:57:54;;;;;;;;;;;;;;;10.99;81.06;94927.13;4974931;28;1008;-48
2022/05/03 03:03:04;;;;;;;;;;;;;;;10.91;81.34;94926.13;4974573;28;1077;-48
2022/05/03 03:05:30;;;;;;;;;;;;;;;10.84;80.99;94919.78;4974519;28;978;-48
2022/05/03 03:08:03;;;;;;;;;;;;;;;10.84;81.26;94921.63;4974463;28;1029;-48
2022/05/03 03:10:38;;;;;;;;;;;;;;;10.87;80.58;94926.63;4974391;28;1053;-48
2022/05/03 03:13:10;;;;;;;;;;;;;;;10.85;81.98;94925.97;4974436;28;1911;-48
2022/05/03 03:15:38;;;;;;;;;;;;;;;10.82;80.67;94929.81;4974622;28;1027;-48
2022/05/03 03:18:06;;;;;;;;;;;;;;;10.83;80.82;94934.19;4974236;28;1024;-48
2022/05/03 03:20:36;;;;;;;;;;;;;;;10.81;79.80;94927.31;4974224;28;1052;-48
2022/05/03 03:23:02;;;;;;;;;;;;;;;10.87;79.50;94927.47;4974730;28;992;-48
2022/05/03 03:25:29;;;;;;;;;;;;;;;10.83;79.38;94936.00;4974110;28;1147;-48
2022/05/03 03:27:56;;;;;;;;;;;;;;;10.81;80.16;94929.97;4974319;28;1092;-48
2022/05/03 03:30:22;;;;;;;;;;;;;;;10.71;82.55;94936.31;4974493;28;1115;-48
2022/05/03 03:32:53;;;;;;;;;;;;;;;10.72;81.13;94940.69;4974020;28;911;-48
2022/05/03 03:35:19;;;;;;;;;;;;;;;10.72;80.87;94935.34;4974339;28;1982;-48
2022/05/03 03:37:47;;;;;;;;;;;;;;;10.75;80.75;94936.84;4974347;28;1083;-48
2022/05/03 03:40:14;;;;;;;;;;;;;;;10.69;81.84;94941.00;4974307;28;1022;-48
2022/05/03 03:42:43;;;;;;;;;;;;;;;10.72;81.63;94931.84;4974311;28;1043;-48
2022/05/03 03:45:10;;;;;;;;;;;;;;;10.77;81.06;94936.66;4974049;28;1060;-48
2022/05/03 03:47:37;;;;;;;;;;;;;;;10.79;81.72;94934.66;4974025;28;1075;-48
2022/05/03 03:50:03;;;;;;;;;;;;;;;10.78;81.18;94943.69;4976889;28;1031;-48
2022/05/03 03:52:30;;;;;;;;;;;;;;;10.77;81.91;94939.34;4978002;28;1045;-48
2022/05/03 03:54:57;;;;;;;;;;;;;;;10.80;82.04;94942.53;4977892;28;1985;-48
2022/05/03 03:57:23;;;;;;;;;;;;;;;10.80;82.16;94942.53;4978232;28;1017;-48
2022/05/03 03:59:49;;;;;;;;;;;;;;;10.81;80.48;94944.19;4978138;28;954;-48
2022/05/03 04:02:16;;;;;;;;;;;;;;;10.75;81.06;94940.34;4977909;28;972;-48
2022/05/03 04:04:43;;;;;;;;;;;;;;;10.75;81.10;94944.84;4977973;28;1017;-48
2022/05/03 04:07:09;;;;;;;;;;;;;;;10.73;81.82;94952.22;4977673;28;955;-48
2022/05/03 04:09:35;;;;;;;;;;;;;;;10.74;82.44;94949.38;4977597;28;966;-48
2022/05/03 04:12:02;;;;;;;;;;;;;;;10.77;82.80;94950.03;4977545;28;1084;-48
2022/05/03 04:14:29;;;;;;;;;;;;;;;10.72;82.73;94950.56;4977714;28;1914;-48
2022/05/03 04:16:55;;;;;;;;;;;;;;;10.73;82.81;94953.03;4977422;28;1002;-48
2022/05/03 04:19:21;;;;;;;;;;;;;;;10.71;82.75;94968.41;4977261;28;942;-48
2022/05/03 04:21:48;;;;;;;;;;;;;;;10.63;82.74;94960.41;4977594;28;958;-48
2022/05/03 04:24:14;;;;;;;;;;;;;;;10.68;82.19;94958.06;4977866;28;1038;-47
2022/05/03 04:26:40;;;;;;;;;;;;;;;10.75;82.22;94959.06;4977329;28;1344;-48
2022/05/03 04:29:06;;;;;;;;;;;;;;;10.79;82.04;94961.41;4977446;28;1084;-48
2022/05/03 04:31:33;;;;;;;;;;;;;;;10.81;81.77;94959.41;4977027;28;1209;-48
2022/05/03 04:34:02;;;;;;;;;;;;;;;10.82;82.42;94961.91;4977370;28;1988;-48
2022/05/03 04:36:33;;;;;;;;;;;;;;;10.77;82.04;94958.88;4976945;28;1159;-48
2022/05/03 04:39:00;;;;;;;;;;;;;;;10.72;82.08;94959.41;4977464;28;952;-48
2022/05/03 04:41:26;;;;;;;;;;;;;;;10.65;81.84;94961.06;4977245;28;1035;-47
2022/05/03 04:43:52;;;;;;;;;;;;;;;10.73;82.65;94965.59;4977414;28;1016;-47
2022/05/03 04:46:19;;;;;;;;;;;;;;;10.90;82.64;94964.56;4977024;28;951;-48
2022/05/03 04:48:45;;;;;;;;;;;;;;;11.06;81.18;94960.22;4977186;28;1042;-47
2022/05/03 04:51:18;;;;;;;;;;;;;;;11.10;81.54;94964.25;4976754;28;1096;-48
2022/05/03 04:53:44;;;;;;;;;;;;;;;11.05;81.09;94963.91;4977152;28;1919;-47
2022/05/03 04:56:25;;;;;;;;;;;;;;;11.11;80.83;94966.72;4977054;28;973;-48
2022/05/03 04:58:55;;;;;;;;;;;;;;;11.04;81.39;94964.91;4976852;28;1053;-48
2022/05/03 05:01:21;;;;;;;;;;;;;;;10.94;82.28;94965.91;4975817;28;971;-48
2022/05/03 05:03:47;;;;;;;;;;;;;;;10.96;81.79;94965.75;4976701;28;1080;-48
2022/05/03 05:06:13;;;;;;;;;;;;;;;10.88;83.29;94971.09;4976890;28;963;-48
2022/05/03 05:08:40;;;;;;;;;;;;;;;10.87;83.51;94964.06;4976769;28;993;-48
2022/05/03 05:11:06;;;;;;;;;;;;;;;10.91;82.38;94965.44;4976693;28;1028;-47
2022/05/03 05:13:33;;;;;;;;;;;;;;;11.01;82.64;94970.59;4976315;28;1993;-48
2022/05/03 05:15:59;;;;;;;;;;;;;;;10.95;82.84;94964.09;4976556;28;962;-48
2022/05/03 05:18:25;;;;;;;;;;;;;;;10.91;83.02;94962.75;4976315;28;1084;-48
2022/05/03 05:20:51;;;;;;;;;;;;;;;10.83;82.99;94966.28;4976744;28;955;-48
2022/05/03 05:23:17;;;;;;;;;;;;;;;10.83;82.61;94968.94;4976491;28;1014;-48
2022/05/03 05:25:44;;;;;;;;;;;;;;;10.80;82.50;94971.13;4976669;28;1229;-48
2022/05/03 05:28:10;;;;;;;;;;;;;;;10.89;82.84;94972.78;4976100;28;1076;-48
2022/05/03 05:30:36;;;;;;;;;;;;;;;10.93;82.93;94980.31;4976257;28;1037;-48
2022/05/03 05:33:02;;;;;;;;;;;;;;;10.99;82.95;94980.66;4976052;28;981;-47
2022/05/03 05:35:28;;;;;;;;;;;;;;;11.02;82.89;94981.16;4976071;28;1903;-48
2022/05/03 05:37:54;;;;;;;;;;;;;;;11.02;82.93;94975.78;4976215;28;1058;-47
2022/05/03 05:40:20;;;;;;;;;;;;;;;11.14;82.03;94982.47;4976309;28;976;-48
2022/05/03 05:42:49;;;;;;;;;;;;;;;11.21;81.78;94988.00;4976196;28;1022;-47
2022/05/03 05:45:16;;;;;;;;;;;;;;;11.22;81.36;94995.00;4976079;28;1060;-47
2022/05/03 05:47:43;;;;;;;;;;;;;;;11.19;80.95;94997.16;4975958;28;1030;-48
2022/05/03 05:50:12;;;;;;;;;;;;;;;11.13;81.18;94991.50;4975922;28;1029;-48
2022/05/03 05:55:23;;;;;;;;;;;;;;;11.10;81.26;94999.88;4975673;28;1911;-48
2022/05/03 05:57:49;;;;;;;;;;;;;;;11.11;81.35;95001.50;4975953;28;1028;-47
2022/05/03 06:00:16;;;;;;;;;;;;;;;11.09;81.85;95000.03;4975605;28;1036;-48
2022/05/03 06:02:42;;;;;;;;;;;;;;;11.09;81.29;95000.84;4975488;28;1100;-48
2022/05/03 06:05:08;;;;;;;;;;;;;;;11.06;81.30;95003.03;4975943;28;982;-47
2022/05/03 06:07:34;;;;;;;;;;;;;;;11.01;82.26;95008.06;4975454;28;973;-47
2022/05/03 06:10:01;;;;;;;;;;;;;;;11.06;81.93;95005.69;4975624;28;1041;-48
2022/05/03 06:12:27;;;;;;;;;;;;;;;11.10;81.18;95007.06;4974353;28;981;-47
2022/05/03 06:14:53;;;;;;;;;;;;;;;11.21;79.33;95006.72;4975668;28;1911;-47
2022/05/03 06:17:19;;;;;;;;;;;;;;;11.30;78.63;95003.00;4975182;28;1036;-47
2022/05/03 06:19:45;;;;;;;;;;;;;;;11.41;77.38;95014.38;4975547;28;1045;-47
2022/05/03 06:22:11;;;;;;;;;;;;;;;11.33;78.46;95012.56;4975595;28;1029;-47
2022/05/03 06:24:38;;;;;;;;;;;;;;;11.19;79.58;95011.38;4975374;28;969;-48
2022/05/03 06:27:04;;;;;;;;;;;;;;;11.22;78.82;95005.69;4975011;28;1222;-48
2022/05/03 06:29:32;;;;;;;;;;;;;;;11.24;79.24;95016.25;4974914;28;1033;-48
2022/05/03 06:31:59;;;;;;;;;;;;;;;11.35;78.60;95007.88;4975254;28;1000;-48
2022/05/03 06:34:25;;;;;;;;;;;;;;;11.41;77.67;95015.22;4975001;28;2004;-48
2022/05/03 06:36:52;;;;;;;;;;;;;;;11.42;77.64;95016.03;4975023;28;1037;-48
2022/05/03 06:39:18;;;;;;;;;;;;;;;11.43;77.30;95015.88;4974777;28;1982;-48
2022/05/03 06:41:44;;;;;;;;;;;;;;;11.50;76.93;95014.19;4975059;28;951;-48
2022/05/03 06:44:13;;;;;;;;;;;;;;;11.43;76.89;95013.19;4974765;28;1001;-48
2022/05/03 06:46:39;;;;;;;;;;;;;;;11.35;77.21;95015.91;4975017;28;1061;-47
2022/05/03 06:49:05;;;;;;;;;;;;;;;11.36;77.90;95016.72;4974808;28;1034;-47
2022/05/03 06:51:31;;;;;;;;;;;;;;;11.22;78.16;95015.56;4975075;28;966;-47
2022/05/03 06:53:57;;;;;;;;;;;;;;;11.35;77.02;95017.75;4974603;28;1995;-47
2022/05/03 06:56:23;;;;;;;;;;;;;;;11.44;75.98;95019.38;4974947;28;988;-47
2022/05/03 06:58:49;;;;;;;;;;;;;;;11.34;77.89;95024.91;4974824;28;955;-47
2022/05/03 07:01:15;;;;;;;;;;;;;;;11.29;78.96;95016.59;4974929;28;966;-48
2022/05/03 07:03:42;;;;;;;;;;;;;;;11.29;78.70;95019.25;4974456;28;1021;-48
2022/05/03 07:06:09;;;;;;;;;;;;;;;11.36;78.52;95025.59;4974667;28;1071;-48
2022/05/03 07:08:35;;;;;;;;;;;;;;;11.42;78.37;95024.94;4974254;28;1119;-48
2022/05/03 07:11:02;;;;;;;;;;;;;;;11.38;78.80;95022.75;4974824;28;1026;-48
2022/05/03 07:13:28;;;;;;;;;;;;;;;11.32;78.84;95025.13;4974198;28;1993;-48
2022/05/03 07:15:55;;;;;;;;;;;;;;;11.36;78.62;95022.91;4974405;28;1013;-48
2022/05/03 07:23:51;;;;;;;;;;;;;;;11.56;77.10;95031.44;4974144;28;993;-48
2022/05/03 07:26:17;;;;;;;;;;;;;;;11.60;76.16;95039.97;4974090;28;1202;-48
2022/05/03 07:28:44;;;;;;;;;;;;;;;11.57;77.49;95030.41;4974543;28;997;-47
2022/05/03 07:31:10;;;;;;;;;;;;;;;11.48;77.67;95034.94;4974289;28;1021;-48
2022/05/03 07:33:36;;;;;;;;;;;;;;;11.51;77.33;95034.63;4974110;28;1995;-48
2022/05/03 07:36:04;;;;;;;;;;;;;;;11.60;77.00;95046.13;4974240;28;1017;-48
2022/05/03 07:38:31;;;;;;;;;;;;;;;11.65;78.16;95046.47;4974407;28;1020;-48
2022/05/03 07:40:57;;;;;;;;;;;;;;;11.80;75.14;95041.25;4974082;28;1088;-48
2022/05/03 07:43:23;;;;;;;;;;;;;;;11.89;75.38;95055.44;4974379;28;967;-48
2022/05/03 07:45:49;;;;;;;;;;;;;;;11.85;76.86;95046.91;4974214;28;1042;-48
2022/05/03 07:48:15;;;;;;;;;;;;;;;11.85;76.20;95054.13;4973994;28;1088;-48
2022/05/03 07:50:43;;;;;;;;;;;;;;;11.80;77.19;95059.16;4974222;28;898;-47
2022/05/03 07:53:09;;;;;;;;;;;;;;;11.81;77.52;95058.16;4974083;28;1090;-48
2022/05/03 07:55:35;;;;;;;;;;;;;;;11.95;76.38;95059.31;4973763;28;2037;-48
2022/05/03 07:58:01;;;;;;;;;;;;;;;11.99;74.59;95053.47;4974356;28;963;-48
2022/05/03 08:00:27;;;;;;;;;;;;;;;12.01;74.98;95056.81;4974040;28;1012;-47
2022/05/03 08:02:53;;;;;;;;;;;;;;;11.99;74.63;95066.88;4974150;28;1022;-49
2022/05/03 08:05:19;;;;;;;;;;;;;;;12.11;72.16;95070.00;4973849;28;1033;-48
2022/05/03 08:07:47;;;;;;;;;;;;;;;12.21;74.36;95067.13;4974329;28;963;-48
2022/05/03 08:10:13;;;;;;;;;;;;;;;12.19;74.21;95064.59;4973930;28;1009;-48
2022/05/03 08:12:39;;;;;;;;;;;;;;;12.26;73.47;95073.63;4974264;28;1237;-48
2022/05/03 08:15:05;;;;;;;;;;;;;;;12.32;73.08;95074.78;4973789;28;1906;-49
2022/05/03 08:17:31;;;;;;;;;;;;;;;12.44;73.22;95072.53;4973703;28;1862;-48
2022/05/03 08:19:58;;;;;;;;;;;;;;;12.51;71.96;95073.53;4973850;28;1009;-48
2022/05/03 08:22:25;;;;;;;;;;;;;;;12.53;73.46;95073.34;4973813;28;1059;-51
2022/05/03 08:24:51;;;;;;;;;;;;;;;12.64;73.24;95078.34;4974037;28;974;-49
2022/05/03 08:27:17;;;;;;;;;;;;;;;12.79;72.16;95078.44;4973582;28;1899;-48
2022/05/03 08:29:44;;;;;;;;;;;;;;;12.86;70.90;95077.53;4973782;28;969;-50
2022/05/03 08:32:10;;;;;;;;;;;;;;;13.03;70.93;95069.38;4973866;28;970;-48
2022/05/03 08:34:36;;;;;;;;;;;;;;;13.11;69.82;95073.84;4973582;28;1911;-47
2022/05/03 08:42:32;;;;;;;;;;;;;;;13.41;68.97;95072.13;4976655;28;1013;-48
2022/05/03 08:44:59;;;;;;;;;;;;;;;13.48;68.35;95075.78;4976203;28;1033;-49
2022/05/03 08:47:27;;;;;;;;;;;;;;;13.54;69.10;95077.72;4975572;28;1040;-49
2022/05/03 08:50:06;;;;;;;;;;;;;;;13.55;69.27;95078.59;4977262;28;1107;-48
2022/05/03 08:52:34;;;;;;;;;;;;;;;13.75;69.02;95081.56;4976741;28;990;-49
2022/05/03 08:55:01;;;;;;;;;;;;;;;13.95;69.79;95080.03;4976811;28;1931;-48
2022/05/03 08:57:28;;;;;;;;;;;;;;;13.94;68.71;95078.34;4977078;28;957;-48
2022/05/03 08:59:54;;;;;;;;;;;;;;;13.87;66.50;95082.81;4976891;28;952;-49
2022/05/03 09:02:20;;;;;;;;;;;;;;;13.83;66.83;95076.16;4976883;28;1040;-49
2022/05/03 09:04:47;;;;;;;;;;;;;;;14.00;67.23;95074.97;4977013;28;1041;-49
2022/05/03 09:07:17;;;;;;;;;;;;;;;14.09;66.08;95083.75;4976918;28;1088;-49
2022/05/03 09:09:43;;;;;;;;;;;;;;;14.18;65.26;95087.19;4976694;28;998;-49
2022/05/03 09:12:20;;;;;;;;;;;;;;;14.27;65.82;95082.56;4976800;28;1073;-49
2022/05/03 09:14:46;;;;;;;;;;;;;;;14.22;64.41;95081.25;4976710;28;1984;-48
2022/05/03 09:17:12;;;;;;;;;;;;;;;14.11;67.29;95080.88;4976654;28;1042;-49
2022/05/03 09:19:38;;;;;;;;;;;;;;;14.00;67.83;95072.28;4976665;28;962;-48
2022/05/03 09:24:52;;;;;;;;;;;;;;;13.72;66.82;95074.72;4976375;28;1070;-49
2022/05/03 09:27:19;;;;;;;;;;;;;;;13.66;66.71;95078.97;4975849;28;1258;-49
2022/05/03 09:30:05;;;;;;;;;;;;;;;13.50;67.79;95083.66;4976514;28;963;-48
2022/05/03 09:32:38;;;;;;;;;;;;;;;13.33;68.79;95080.25;4976196;28;958;-49
2022/05/03 09:35:05;;;;;;;;;;;;;;;13.26;68.64;95080.09;4976458;28;1991;-49
2022/05/03 09:37:38;;;;;;;;;;;;;;;13.24;68.38;95082.13;4975839;28;1056;-49
2022/05/03 09:40:05;;;;;;;;;;;;;;;13.20;66.87;95083.50;4976333;28;982;-49
2022/05/03 09:42:34;;;;;;;;;;;;;;;13.19;67.62;95085.38;4975974;28;1190;-49
2022/05/03 09:45:02;;;;;;;;;;;;;;;13.08;67.38;95077.72;4976198;28;1054;-49
2022/05/03 09:47:29;;;;;;;;;;;;;;;12.95;68.23;95070.25;4975581;28;963;-49
2022/05/03 09:49:55;;;;;;;;;;;;;;;13.05;66.68;95078.94;4975995;28;1016;-49
2022/05/03 09:52:28;;;;;;;;;;;;;;;13.04;68.10;95082.59;4975880;28;989;-49
2022/05/03 09:54:59;;;;;;;;;;;;;;;13.18;66.38;95081.00;4976009;28;1902;-49
2022/05/03 09:57:26;;;;;;;;;;;;;;;13.27;66.12;95074.56;4975731;28;1037;-48
2022/05/03 09:59:53;;;;;;;;;;;;;;;13.32;65.63;95074.06;4975789;28;1074;-49
2022/05/03 10:02:20;;;;;;;;;;;;;;;13.30;65.81;95070.72;4975581;28;1024;-49
2022/05/03 10:04:47;;;;;;;;;;;;;;;13.35;67.06;95062.13;4974416;28;1022;-48
2022/05/03 10:07:14;;;;;;;;;;;;;;;13.43;65.15;95068.28;4975466;28;1298;-49
2022/05/03 10:09:41;;;;;;;;;;;;;;;13.50;66.25;95065.69;4975851;28;1242;-49
2022/05/03 10:12:08;;;;;;;;;;;;;;;13.61;65.07;95061.72;4975350;28;1884;-48
2022/05/03 10:14:35;;;;;;;;;;;;;;;13.82;63.69;95061.84;4975265;28;1979;-48
2022/05/03 10:22:36;;;;;;;;;;;;;;;14.56;61.28;95066.41;4975064;28;1038;-48
2022/05/03 10:25:04;;;;;;;;;;;;;;;14.59;61.02;95055.31;4975545;28;988;-48
2022/05/03 10:27:32;;;;;;;;;;;;;;;14.65;63.23;95053.72;4974730;28;1222;-48
2022/05/03 10:30:15;;;;;;;;;;;;;;;14.73;60.80;95060.84;4975218;28;1032;-49
2022/05/03 10:32:41;;;;;;;;;;;;;;;14.72;60.02;95061.84;4975225;28;960;-48
2022/05/03 10:35:26;;;;;;;;;;;;;;;14.61;61.41;95053.25;4975273;28;1987;-49
2022/05/03 10:37:59;;;;;;;;;;;;;;;14.62;61.46;95049.53;4974900;28;1083;-49
2022/05/03 10:40:29;;;;;;;;;;;;;;;14.52;60.33;95059.72;4974939;28;1041;-48
2022/05/03 10:43:04;;;;;;;;;;;;;;;14.36;61.39;95055.41;4974996;28;1031;-49
2022/05/03 10:45:30;;;;;;;;;;;;;;;14.33;63.10;95057.63;4975203;28;1136;-49
2022/05/03 10:47:57;;;;;;;;;;;;;;;14.28;63.62;95057.34;4974702;28;1092;-49
2022/05/03 10:50:32;;;;;;;;;;;;;;;14.25;65.03;95054.00;4974914;28;1024;-48
2022/05/03 10:52:58;;;;;;;;;;;;;;;14.37;62.91;95057.03;4974950;28;1020;-48
2022/05/03 10:55:28;;;;;;;;;;;;;;;14.52;63.83;95051.66;4974837;28;1993;-48
2022/05/03 10:58:13;;;;;;;;;;;;;;;14.63;61.33;95053.91;4974553;28;1840;-49
2022/05/03 11:00:58;;;;;;;;;;;;;;;14.72;62.86;95041.19;4974682;28;951;-49
2022/05/03 11:03:24;;;;;;;;;;;;;;;14.80;62.24;95048.31;4974338;28;1051;-49
2022/05/03 11:06:08;;;;;;;;;;;;;;;14.86;61.18;95049.41;4975009;28;1028;-48
2022/05/03 11:08:36;;;;;;;;;;;;;;;14.81;62.55;95049.94;4974670;28;1139;-49
2022/05/03 11:11:02;;;;;;;;;;;;;;;14.68;63.08;95047.09;4975030;28;952;-49
2022/05/03 11:13:40;;;;;;;;;;;;;;;14.63;62.75;95051.19;4974236;28;1999;-48
2022/05/03 11:16:18;;;;;;;;;;;;;;;14.75;61.66;95048.03;4974779;28;1102;-49
2022/05/03 11:18:45;;;;;;;;;;;;;;;14.78;62.71;95050.34;4974338;28;973;-48
2022/05/03 11:21:14;;;;;;;;;;;;;;;14.66;61.84;95046.47;4974628;28;974;-49
2022/05/03 11:23:50;;;;;;;;;;;;;;;14.52;63.98;95048.97;4974191;28;1017;-49
2022/05/03 11:26:18;;;;;;;;;;;;;;;14.49;63.21;95045.81;4974098;28;1257;-49
2022/05/03 11:28:46;;;;;;;;;;;;;;;14.40;63.08;95045.09;4974157;28;1957;-48
2022/05/03 11:31:12;;;;;;;;;;;;;;;14.34;64.18;95040.44;4974547;28;1054;-48
2022/05/03 11:33:48;;;;;;;;;;;;;;;14.33;63.21;95039.63;4974037;28;1985;-48
2022/05/03 11:36:15;;;;;;;;;;;;;;;14.48;63.62;95045.00;4974634;28;953;-49
2022/05/03 11:38:41;;;;;;;;;;;;;;;14.54;64.21;95036.16;4974063;28;1025;-48
2022/05/03 11:41:09;;;;;;;;;;;;;;;14.69;62.76;95041.53;4973093;28;1026;-48
2022/05/03 11:43:35;;;;;;;;;;;;;;;14.72;64.15;95038.50;4973948;28;1065;-49
2022/05/03 11:46:01;;;;;;;;;;;;;;;14.71;64.06;95046.75;4974160;28;1122;-49
2022/05/03 11:48:27;;;;;;;;;;;;;;;14.69;61.01;95038.84;4973937;28;1036;-49
2022/05/03 11:56:29;;;;;;;;;;;;;;;14.63;63.63;95036.94;4974082;28;959;-48
2022/05/03 11:58:55;;;;;;;;;;;;;;;14.69;62.86;95036.16;4974057;28;967;-48
2022/05/03 12:01:23;;;;;;;;;;;;;;;14.67;63.36;95048.16;4974082;28;1046;-48
2022/05/03 12:03:55;;;;;;;;;;;;;;;14.57;62.74;95041.22;4973975;28;1044;-48
2022/05/03 12:06:22;;;;;;;;;;;;;;;14.54;62.67;95040.72;4974271;28;1005;-48
2022/05/03 12:08:50;;;;;;;;;;;;;;;14.44;63.70;95043.69;4974074;28;1001;-48
2022/05/03 12:11:19;;;;;;;;;;;;;;;14.33;63.46;95038.78;4976737;28;1990;-48
2022/05/03 12:13:45;;;;;;;;;;;;;;;14.08;63.82;95036.41;4977734;28;1987;-48
2022/05/03 12:16:15;;;;;;;;;;;;;;;13.91;64.31;95037.59;4977741;28;954;-49
2022/05/03 12:18:43;;;;;;;;;;;;;;;13.73;65.12;95043.31;4977203;28;1037;-49
2022/05/03 12:21:13;;;;;;;;;;;;;;;13.66;65.84;95048.59;4977868;28;973;-49
2022/05/03 12:23:39;;;;;;;;;;;;;;;13.54;66.86;95042.81;4977603;28;1033;-48
2022/05/03 12:26:17;;;;;;;;;;;;;;;13.58;68.63;95044.13;4977506;28;1206;-48
2022/05/03 12:28:44;;;;;;;;;;;;;;;13.61;69.56;95045.63;4977360;28;977;-48
2022/05/03 12:31:12;;;;;;;;;;;;;;;13.69;67.76;95042.00;4977398;28;1081;-49
2022/05/03 12:33:42;;;;;;;;;;;;;;;13.76;68.54;95043.78;4977290;28;1991;-49
2022/05/03 12:36:08;;;;;;;;;;;;;;;13.78;68.34;95044.44;4977699;28;1028;-49
2022/05/03 12:38:45;;;;;;;;;;;;;;;13.75;68.18;95044.78;4977043;28;1037;-48
2022/05/03 12:41:21;;;;;;;;;;;;;;;13.89;67.72;95043.16;4977519;28;961;-48
2022/05/03 12:43:58;;;;;;;;;;;;;;;13.97;66.56;95040.38;4977020;28;1017;-49
2022/05/03 12:46:30;;;;;;;;;;;;;;;13.95;67.50;95050.47;4977289;28;1134;-48
2022/05/03 12:48:57;;;;;;;;;;;;;;;13.95;65.73;95039.72;4976904;28;985;-49
2022/05/03 12:51:24;;;;;;;;;;;;;;;13.93;66.06;95043.63;4977044;28;984;-49
2022/05/03 12:53:51;;;;;;;;;;;;;;;13.97;65.37;95047.59;4977113;28;1910;-49
2022/05/03 12:59:01;;;;;;;;;;;;;;;13.74;65.19;95053.06;4976931;28;1033;-49
2022/05/03 13:01:27;;;;;;;;;;;;;;;13.65;66.31;95054.97;4976857;28;1981;-48
2022/05/03 13:03:54;;;;;;;;;;;;;;;13.54;66.99;95042.81;4977073;28;997;-48
2022/05/03 13:06:20;;;;;;;;;;;;;;;13.54;67.31;95047.34;4976989;28;968;-49
2022/05/03 13:08:47;;;;;;;;;;;;;;;13.55;66.39;95049.03;4976922;28;989;-49
2022/05/03 13:11:13;;;;;;;;;;;;;;;13.53;66.27;95054.59;4976496;28;1034;-49
2022/05/03 13:13:39;;;;;;;;;;;;;;;13.50;67.83;95048.75;4976548;28;1963;-49
2022/05/03 13:19:21;;;;;;;;;;;;;;;13.35;68.02;95046.84;4976425;28;1050;-48
2022/05/03 13:21:47;;;;;;;;;;;;;;;13.33;68.87;95051.56;4976268;28;996;-48
2022/05/03 13:24:13;;;;;;;;;;;;;;;13.33;68.12;95046.19;4976644;28;966;-48
2022/05/03 13:26:40;;;;;;;;;;;;;;;13.33;68.52;95043.50;4976266;28;1159;-48
2022/05/03 13:29:08;;;;;;;;;;;;;;;13.39;68.56;95042.78;4976683;28;1081;-48
2022/05/03 13:31:34;;;;;;;;;;;;;;;13.41;68.83;95043.44;4976232;28;1030;-49
2022/05/03 13:34:00;;;;;;;;;;;;;;;13.37;67.37;95047.50;4976218;28;1910;-49
2022/05/03 13:41:57;;;;;;;;;;;;;;;13.63;66.80;95054.31;4976009;28;1081;-48
2022/05/03 13:44:25;;;;;;;;;;;;;;;13.63;67.50;95051.63;4975863;28;1095;-48
2022/05/03 13:46:52;;;;;;;;;;;;;;;13.59;67.54;95053.03;4976271;28;1042;-48
2022/05/03 13:49:19;;;;;;;;;;;;;;;13.60;67.67;95065.41;4975743;28;1065;-48
2022/05/03 13:51:45;;;;;;;;;;;;;;;13.60;66.21;95060.91;4975922;28;1046;-49